»·PEaware :: G-GAMM L88-KSBP

G-GAMM :: L88-KSBP

FLIGHT INFORMATION

Flight Status: Arrived
Operator: Privately registered:
United Kingdom
More flights under this callsign
Pilot: Malcolm M. (20352)
Aircraft: CESSNA 172 SKYHAWK
(C172)
More flights by this aircraft type
Origin: L88 New Cuyama
United States
Destination: KSBP San Luis Co Regl
United States
More flights between these airports :: More routes between these airports
Route: +DCT
File this flight plan on PilotEdge
Remarks:
Altitude:
(Current/Filed)
6,500ft
Speed:
(Current/Filed)
100kts
Departed: 09-Sep-18 07:45 PM
Arrived: 09-Sep-18 08:21 PM
Distance/Time
Traveled:
50nm/0:36
Distance/Time
To Go:
Arrived

Flight Plot

Page will automatically refresh every two minutes.


Map Options




Map Legend


Flown Route
Filed Route
Departure Airport
Arrival Airport
Navaid (VOR, NDB)
Fix

Horizontal Profiles

Position Reports

Time Latitude Longitude Heading Altitude Ground
Speed
09-Sep-18 19:43 34.939808 -119.693387 23 2206ft 0kts
09-Sep-18 19:44 34.939808 -119.693387 23 2206ft 0kts
09-Sep-18 19:45 34.940012 -119.694108 214 2206ft 0kts
09-Sep-18 19:46 34.939947 -119.694163 214 2206ft 6kts
09-Sep-18 19:47 34.934335 -119.680557 114 2491ft 76kts
09-Sep-18 19:48 34.933886 -119.665332 0 3286ft 56kts
09-Sep-18 19:49 34.947319 -119.672639 319 4026ft 45kts
09-Sep-18 19:50 34.959432 -119.685460 318 4557ft 70kts
09-Sep-18 19:51 34.971923 -119.713150 293 4504ft 106kts
09-Sep-18 19:52 34.981755 -119.743931 293 4924ft 86kts
09-Sep-18 19:53 34.989707 -119.770216 293 5564ft 79kts
09-Sep-18 19:54 34.996862 -119.794861 293 6209ft 73kts
09-Sep-18 19:55 35.004065 -119.820048 293 6546ft 93kts
09-Sep-18 19:56 35.013795 -119.852472 293 6515ft 104kts
09-Sep-18 19:57 35.023812 -119.885667 293 6513ft 104kts
09-Sep-18 19:58 35.033879 -119.918984 293 6513ft 104kts
09-Sep-18 19:59 35.043959 -119.952359 293 6513ft 104kts
09-Sep-18 20:00 35.055033 -119.985120 303 6515ft 103kts
09-Sep-18 20:01 35.070309 -120.014826 304 6514ft 102kts
09-Sep-18 20:02 35.084716 -120.043018 304 6505ft 96kts
09-Sep-18 20:03 35.099925 -120.069844 313 6507ft 95kts
09-Sep-18 20:04 35.118766 -120.092910 316 6506ft 95kts
09-Sep-18 20:05 35.137010 -120.116524 292 6501ft 98kts
09-Sep-18 20:06 35.140924 -120.151152 281 6238ft 110kts
09-Sep-18 20:07 35.147302 -120.186283 290 5584ft 104kts
09-Sep-18 20:08 35.155949 -120.220128 290 4941ft 104kts
09-Sep-18 20:09 35.162095 -120.244212 290 4528ft 102kts
09-Sep-18 20:10 35.169951 -120.273798 292 4496ft 85kts
09-Sep-18 20:11 35.174302 -120.289446 292 4501ft 85kts
09-Sep-18 20:12 35.181911 -120.316822 292 4501ft 85kts
09-Sep-18 20:13 35.189544 -120.344271 292 4501ft 85kts
09-Sep-18 20:14 35.197141 -120.371630 292 4502ft 85kts
09-Sep-18 20:15 35.204933 -120.399580 292 4523ft 96kts
09-Sep-18 20:16 35.214668 -120.433335 292 4503ft 108kts
09-Sep-18 20:17 35.224746 -120.468114 292 4501ft 108kts
09-Sep-18 20:18 35.235585 -120.505119 292 4087ft 123kts
09-Sep-18 20:19 35.240668 -120.538011 274 3591ft 127kts
09-Sep-18 20:20 35.230200 -120.580740 232 2141ft 88kts
09-Sep-18 20:21 35.218732 -120.602535 272 1043ft 70kts
09-Sep-18 20:22 35.226992 -120.625110 309 704ft 73kts
09-Sep-18 20:23 35.236218 -120.638955 303 215ft 13kts
09-Sep-18 20:24 35.237503 -120.640184 7 215ft 0kts
09-Sep-18 20:25 35.237503 -120.640184 7 215ft 0kts
09-Sep-18 20:26 35.237504 -120.640184 7 215ft 0kts
09-Sep-18 20:27 35.237605 -120.640173 4 215ft 0kts
09-Sep-18 20:28 35.237753 -120.638298 41 215ft 9kts
09-Sep-18 20:29 35.237944 -120.638272 3 215ft 0kts
09-Sep-18 20:30 35.237945 -120.638272 3 215ft 0kts
09-Sep-18 20:31 35.237945 -120.638272 3 215ft 0kts
09-Sep-18 20:32 35.237946 -120.638272 3 215ft 0kts
09-Sep-18 20:33 35.237946 -120.638272 3 215ft 0kts
09-Sep-18 20:34 35.237947 -120.638272 3 215ft 0kts
09-Sep-18 20:35 35.237947 -120.638272 3 215ft 0kts
09-Sep-18 20:36 35.237947 -120.638272 3 215ft 0kts
09-Sep-18 20:37 35.237947 -120.638272 3 215ft 0kts

Navigation Log

Ident Type
1. L88 Airport
2. KSBP Airport